KFTK

Godman AAF Airport

Fort Knox, Kentucky, USA
TAF AMD KFTK 221420Z 2214/2315 36009KT 9999 BKN150 OVC250 QNH3011INS TEMPO 2214/2217 -TSRA BKN050CB BECMG 2216/2217 03012KT 9999 SCT050 OVC100 QNH3009INS BECMG 2305/2306 05009KT 8000 -SHRA OVC006 QNH3002INS TX18/2214Z TN16/2309Z
Issued Valid From Valid To
Sep-22 @ 14:20 UTC
(41 minutes ago)
Sep-22 @ 14:00 UTC
(an hour ago)
Sep-23 @ 15:00 UTC
(in 24 hours)
to
to
to
to
TAF AMD KFTK 221420Z 2214/2315 36009KT 9999 BKN150 OVC250 QNH3011INS TEMPO 2214/2217 -TSRA BKN050CB BECMG 2216/2217 03012KT 9999 SCT050 OVC100 QNH3009INS BECMG 2305/2306 05009KT 8000 -SHRA OVC006 QNH3002INS TX18/2214Z TN16/2309Z
Issued Sep-22 @ 14:20 UTC
(41 minutes ago)
Valid From Sep-22 @ 14:00 UTC
(an hour ago)
Valid To Sep-23 @ 15:00 UTC
(in 24 hours)
-
-
-
-